NCAR-RAP Real-Time Weather Data

Output produced by METARs form (12 August 2020  18:27 UTC)
found at http://weather.rap.ucar.edu/surface/
 
KMCI 121803Z 21004KT 10SM FEW025 BKN032 OVC250 29/23 A3002 RMK AO2 T02890233
KMCI 121753Z 21007KT 10SM BKN029 OVC250 28/24 A3002 RMK AO2 SLP154 T02830239 10294 20206 50005
KMCI 121734Z 27003KT 10SM BKN028 BKN034 BKN250 29/24 A3003 RMK AO2 T02890239
KMCI 121653Z 00000KT 10SM SCT032 28/23 A3004 RMK AO2 SLP159 T02830228
KMCI 121553Z 18006KT 10SM FEW010 BKN250 28/23 A3003 RMK AO2 SLP157 T02780228
KMCI 121453Z 15009KT 10SM FEW002 BKN250 27/23 A3001 RMK AO2 SLP149 T02670233 58012
KMCI 121353Z 00000KT 6SM BR SCT002 BKN250 23/22 A3003 RMK AO2 SLP159 T02280222
KMCI 121348Z 17005KT 5SM BR SCT002 BKN250 22/22 A3003 RMK AO2
KMCI 121300Z 15004KT 1/4SM R19R/2000V2600FT FG VV002 21/21 A3004 RMK AO2 T02110211
KMCI 121253Z 16005KT 1/4SM R19R/1600V3000FT FG OVC001 21/21 A3004 RMK AO2 SLP163 T02110211
KMCI 121232Z 17003KT 1/4SM R19R/3500VP6000FT FG BKN002 21/21 A3004 RMK AO2 SFC VIS 1/2 T02110211
KMCI 121223Z 16005KT 3/4SM R19R/2800VP6000FT BR VV002 21/21 A3004 RMK AO2 TWR VIS 1 T02110206
KMCI 121217Z 16005KT 1SM R19R/P6000FT BR SCT004 21/21 A3004 RMK AO2 SFC VIS 6 T02110206
KMCI 121210Z 15005KT 1SM R19R/P6000FT CLR 21/21 A3003 RMK AO2 SFC VIS 9 T02110206
KMCI 121153Z 14004KT 10SM FEW003 SCT200 21/20 A3003 RMK AO2 SLP157 T02060200 10233 20206 53006
KMCI 121053Z 14008KT 10SM FEW150 21/20 A3000 RMK AO2 SLP149 T02110200
KMCI 120953Z 16006KT 10SM CLR 21/21 A3000 RMK AO2 SLP148 T02060206
KMCI 120853Z 15006KT 10SM CLR 21/21 A3001 RMK AO2 SLP149 T02110206 50016
KMCI 120753Z 12003KT 10SM CLR 22/21 A3001 RMK AO2 SLP150 T02220206
KMCI 120653Z 11009KT 10SM CLR 23/21 A2998 RMK AO2 SLP139 T02280211
KMCI 120553Z 07003KT 9SM CLR 22/22 A2996 RMK AO2 SLP134 T02220222 10283 20222 402940206 58006
KMCI 120453Z 00000KT 10SM CLR 23/23 A2997 RMK AO2 SLP137 T02330228
KMCI 120353Z 13003KT 10SM CLR 24/23 A2997 RMK AO2 SLP137 T02440233
KMCI 120253Z 14010KT 10SM CLR 25/23 A2998 RMK AO2 SLP140 T02500233 51006
KMCI 120153Z 12010KT 10SM CLR 26/23 A2998 RMK AO2 SLP139 T02610233
KMCI 120053Z 10007KT 10SM FEW050 FEW200 27/23 A2997 RMK AO2 SLP138 T02720233
KMCI 112353Z 05007KT 10SM FEW030 28/24 A2996 RMK AO2 SLP134 T02780239 10294 20278 56007
KMCI 112253Z 08006KT 10SM CLR 28/23 A2996 RMK AO2 SLP135 T02830233
KMCI 112153Z 08007KT 10SM BKN200 29/23 A2998 RMK AO2 SLP138 T02890233
KMCI 112053Z 08007KT 10SM FEW021 BKN130 29/24 A2998 RMK AO2 SLP141 T02940239 56001
KMCI 112039Z 07005KT 10SM SCT022 BKN130 28/23 A2998 RMK AO2 T02830233
KMCI 112024Z 09007KT 10SM BKN022 BKN130 28/23 A2998 RMK AO2 T02830233
KMCI 111953Z 08008KT 10SM FEW021 SCT090 BKN140 28/23 A2999 RMK AO2 SLP143 T02830233
KMCI 111853Z 08006KT 10SM SCT022 BKN100 28/23 A2998 RMK AO2 SLP139 T02830228
KMCI 111753Z VRB05KT 10SM FEW095 SCT130 BKN180 28/22 A2998 RMK AO2 SLP142 T02780217 10283 20211 58009
KMCI 111653Z 00000KT 10SM SCT095 SCT130 BKN180 28/22 A3000 RMK AO2 SLP147 TCU DSNT SE-S T02780222
KMCI 111553Z 09007KT 10SM BKN130 BKN180 26/22 A3001 RMK AO2 SLP150 TCU DSNT SE T02610222
KMCI 111453Z 06005KT 10SM BKN130 BKN180 25/22 A3001 RMK AO2 SLP153 T02500217 53005
KMCI 111353Z 07005KT 10SM SCT130 SCT180 24/21 A3000 RMK AO2 SLP148 TCU DSNT NW T02440211
KMCI 111253Z 09006KT 10SM SCT130 SCT200 23/21 A2999 RMK AO2 SLP145 TCU DSNT W T02280206
KMCI 111153Z 13005KT 10SM BKN080 BKN200 21/20 A3000 RMK AO2 SLP147 70018 T02110200 10233 20206 53010
KMCI 111053Z 09005KT 10SM FEW070 21/20 A2998 RMK AO2 SLP139 T02110200
KMCI 110953Z 08006KT 10SM CLR 22/20 A2996 RMK AO2 SLP135 T02170200
KMCI 110853Z 08008KT 10SM BKN070 22/21 A2997 RMK AO2 SLP136 T02170206 53003
KMCI 110753Z 12006KT 10SM SCT065 22/21 A2996 RMK AO2 SLP134 T02170211
KMCI 110653Z 06008KT 10SM SCT065 22/21 A2995 RMK AO2 SLP131 T02220211
KMCI 110553Z 09006KT 10SM R19R/4500VP6000FT CLR 23/21 A2996 RMK AO2 SLP133 T02330206 10283 20228 402940211 51005
KMCI 110453Z 11006KT 10SM CLR 23/22 A2995 RMK AO2 SLP133 T02330217
KMCI 110353Z 03007KT 10SM CLR 24/22 A2995 RMK AO2 SLP129 T02390222
KMCI 110253Z 17007KT 10SM CLR 23/22 A2994 RMK AO2 SLP127 T02280217 53005
KMCI 110153Z 17003KT 10SM SCT250 25/22 A2991 RMK AO2 SLP118 T02500222
KMCI 110053Z 15003KT 10SM CLR 27/22 A2992 RMK AO2 SLP120 T02720222
KMCI 102353Z 17005KT 10SM FEW050 BKN250 28/23 A2993 RMK AO2 SLP122 60000 T02830233 10289 20256 56002
KMCI 102253Z 10004KT 10SM FEW050 FEW130 BKN250 29/23 A2994 RMK AO2 SLP125 T02890233
KMCI 102153Z 10007KT 10SM FEW050 BKN130 BKN250 28/23 A2991 RMK AO2 SLP117 T02780228
KMCI 102053Z 11012KT 10SM CLR 28/22 A2993 RMK AO2 SLP125 60000 T02780222 58015
KMCI 101953Z 06007KT 10SM CLR 27/22 A2996 RMK AO2 SLP136 T02720222
KMCI 101853Z 19007KT 10SM BKN110 28/22 A3000 RMK AO2 RAE1755B09E18 SLP148 CB DSNT NE SE-S MOV E P0000 T02780222